BVX722 EGHQ-LSZH
Flight info
| Callsign | BVX722 |
|---|---|
| Flight time | N/A |
| Altitude | 39000 |
| Route | LND DCT LIZAD DCT JSY DCT ARSUK DCT RESMI UN491 POGZI DCT GELTA DCT MANAG DCT PEVIT DCT BLM |
| Aircraft | B77W/H-SDE1E2E3FGHIJ2J3J4J5M1RWXY/LB1D1 |
Departure
| Time | 2026-04-26 09:53 |
|---|---|
| Airport | Cornwall Airport Newquay (EGHQ) |
Arrival
| Time | N/A |
|---|---|
| Airport | Zürich Airport (LSZH) |
| Time | Latitude | Longitude | Altitude | Speed | Heading |
|---|---|---|---|---|---|
| 2026-04-26 09:26 | 50.44588 | -5.00243 | 331 ft | 0 kts | 31° |
| 2026-04-26 09:38 | 50.44590 | -5.00239 | 332 ft | 4 kts | 22° |
| 2026-04-26 09:39 | 50.44571 | -5.00241 | 331 ft | 4 kts | 349° |
| 2026-04-26 09:39 | 50.44546 | -5.00227 | 331 ft | 4 kts | 322° |
| 2026-04-26 09:39 | 50.44529 | -5.00197 | 332 ft | 4 kts | 299° |
| 2026-04-26 09:39 | 50.44521 | -5.00175 | 333 ft | 1 kts | 300° |
| 2026-04-26 09:40 | 50.44520 | -5.00173 | 333 ft | 1 kts | 300° |
| 2026-04-26 09:47 | 50.44558 | -5.00277 | 332 ft | 17 kts | 300° |
| 2026-04-26 09:48 | 50.44622 | -5.00447 | 326 ft | 20 kts | 301° |
| 2026-04-26 09:48 | 50.44697 | -5.00643 | 324 ft | 21 kts | 301° |
| 2026-04-26 09:48 | 50.44775 | -5.00848 | 319 ft | 22 kts | 299° |
| 2026-04-26 09:48 | 50.44797 | -5.01034 | 317 ft | 8 kts | 255° |
| 2026-04-26 09:49 | 50.44784 | -5.01080 | 316 ft | 5 kts | 238° |
| 2026-04-26 09:49 | 50.44782 | -5.01083 | 316 ft | 0 kts | 237° |
| 2026-04-26 09:50 | 50.44776 | -5.01096 | 316 ft | 6 kts | 232° |
| 2026-04-26 09:50 | 50.44735 | -5.01149 | 317 ft | 9 kts | 211° |
| 2026-04-26 09:50 | 50.44678 | -5.01143 | 318 ft | 10 kts | 124° |
| 2026-04-26 09:51 | 50.44665 | -5.01106 | 317 ft | 0 kts | 118° |
| 2026-04-26 09:52 | 50.44511 | -5.00682 | 326 ft | 84 kts | 121° |
| 2026-04-26 09:52 | 50.44004 | -4.99324 | 464 ft | 194 kts | 120° |
| 2026-04-26 09:53 | 50.43286 | -4.97393 | 1895 ft | 218 kts | 122° |
| 2026-04-26 09:53 | 50.42471 | -4.95287 | 3708 ft | 227 kts | 124° |
| 2026-04-26 09:53 | 50.41594 | -4.93441 | 5540 ft | 201 kts | 127° |
| 2026-04-26 09:53 | 50.40864 | -4.91477 | 6304 ft | 221 kts | 120° |
| 2026-04-26 09:54 | 50.40094 | -4.89189 | 6719 ft | 252 kts | 120° |
| 2026-04-26 09:54 | 50.39261 | -4.86708 | 7578 ft | 262 kts | 119° |
| 2026-04-26 09:54 | 50.38396 | -4.84123 | 8548 ft | 274 kts | 120° |
| 2026-04-26 09:54 | 50.37502 | -4.81434 | 9578 ft | 282 kts | 120° |
| 2026-04-26 09:55 | 50.36709 | -4.78605 | 10547 ft | 290 kts | 104° |
| 2026-04-26 09:55 | 50.36746 | -4.75346 | 11159 ft | 316 kts | 80° |
| 2026-04-26 09:55 | 50.37339 | -4.71836 | 11438 ft | 350 kts | 76° |
| 2026-04-26 09:55 | 50.38058 | -4.68010 | 11828 ft | 379 kts | 75° |
| 2026-04-26 09:56 | 50.38818 | -4.63979 | 12811 ft | 390 kts | 76° |
| 2026-04-26 09:56 | 50.39569 | -4.59853 | 13906 ft | 397 kts | 77° |
| 2026-04-26 09:56 | 50.40301 | -4.55655 | 14958 ft | 403 kts | 77° |
| 2026-04-26 09:56 | 50.41023 | -4.51367 | 15918 ft | 411 kts | 77° |
| 2026-04-26 09:57 | 50.41743 | -4.46992 | 16860 ft | 419 kts | 77° |
| 2026-04-26 09:57 | 50.42466 | -4.42521 | 17805 ft | 427 kts | 77° |
| 2026-04-26 09:57 | 50.43198 | -4.37963 | 18728 ft | 435 kts | 77° |
| 2026-04-26 09:57 | 50.43937 | -4.33337 | 19565 ft | 441 kts | 77° |
| 2026-04-26 09:58 | 50.44683 | -4.28650 | 20470 ft | 445 kts | 77° |
| 2026-04-26 09:58 | 50.45434 | -4.23910 | 21345 ft | 450 kts | 77° |
| 2026-04-26 09:58 | 50.46192 | -4.19112 | 22183 ft | 456 kts | 77° |
| 2026-04-26 09:58 | 50.46959 | -4.14250 | 22971 ft | 462 kts | 77° |
| 2026-04-26 09:59 | 50.47734 | -4.09321 | 23749 ft | 468 kts | 77° |
| 2026-04-26 09:59 | 50.48516 | -4.04331 | 24440 ft | 473 kts | 77° |
| 2026-04-26 09:59 | 50.49303 | -3.99296 | 25126 ft | 477 kts | 77° |
| 2026-04-26 09:59 | 50.50095 | -3.94213 | 25779 ft | 481 kts | 77° |
| 2026-04-26 10:00 | 50.50892 | -3.89083 | 26420 ft | 486 kts | 77° |
| 2026-04-26 10:00 | 50.51696 | -3.83896 | 27027 ft | 491 kts | 77° |
| 2026-04-26 10:00 | 50.52504 | -3.78663 | 27608 ft | 495 kts | 77° |
| 2026-04-26 10:00 | 50.53317 | -3.73379 | 28197 ft | 499 kts | 77° |
| 2026-04-26 10:01 | 50.54133 | -3.68050 | 28713 ft | 504 kts | 77° |
| 2026-04-26 10:01 | 50.54956 | -3.62664 | 29208 ft | 509 kts | 77° |
| 2026-04-26 10:01 | 50.55784 | -3.57234 | 29704 ft | 513 kts | 77° |
| 2026-04-26 10:01 | 50.56617 | -3.51755 | 30211 ft | 516 kts | 77° |
| 2026-04-26 10:02 | 50.57457 | -3.46267 | 30747 ft | 515 kts | 76° |
| 2026-04-26 10:02 | 50.58406 | -3.40840 | 31352 ft | 513 kts | 75° |
| 2026-04-26 10:02 | 50.59415 | -3.35466 | 31969 ft | 511 kts | 74° |
| 2026-04-26 10:02 | 50.60445 | -3.30126 | 32563 ft | 509 kts | 73° |
| 2026-04-26 10:03 | 50.61476 | -3.24805 | 33154 ft | 507 kts | 73° |
| 2026-04-26 10:03 | 50.62499 | -3.19484 | 33626 ft | 508 kts | 73° |
| 2026-04-26 10:03 | 50.63513 | -3.14155 | 34096 ft | 508 kts | 74° |
| 2026-04-26 10:03 | 50.64517 | -3.08817 | 34568 ft | 507 kts | 74° |
| 2026-04-26 10:04 | 50.65510 | -3.03498 | 35039 ft | 505 kts | 74° |
| 2026-04-26 10:04 | 50.66496 | -2.98187 | 35514 ft | 504 kts | 74° |
| 2026-04-26 10:04 | 50.67476 | -2.92891 | 35929 ft | 503 kts | 73° |
| 2026-04-26 10:04 | 50.68452 | -2.87598 | 36345 ft | 502 kts | 73° |
| 2026-04-26 10:05 | 50.69425 | -2.82310 | 36765 ft | 501 kts | 73° |
| 2026-04-26 10:05 | 50.70395 | -2.77027 | 37159 ft | 501 kts | 73° |
| 2026-04-26 10:05 | 50.71362 | -2.71747 | 37532 ft | 501 kts | 73° |
| 2026-04-26 10:05 | 50.72326 | -2.66469 | 37840 ft | 502 kts | 73° |
| 2026-04-26 10:06 | 50.73294 | -2.61152 | 38007 ft | 507 kts | 73° |
| 2026-04-26 10:06 | 50.74269 | -2.55784 | 38135 ft | 510 kts | 73° |
| 2026-04-26 10:06 | 50.75246 | -2.50389 | 38351 ft | 511 kts | 73° |
| 2026-04-26 10:06 | 50.76221 | -2.44987 | 38646 ft | 511 kts | 73° |
| 2026-04-26 10:07 | 50.77190 | -2.39604 | 38973 ft | 510 kts | 73° |
| 2026-04-26 10:07 | 50.78156 | -2.34216 | 39205 ft | 510 kts | 73° |
| 2026-04-26 10:07 | 50.80093 | -2.23373 | 39294 ft | 513 kts | 73° |
| 2026-04-26 10:08 | 50.82003 | -2.12615 | 39290 ft | 509 kts | 73° |
| 2026-04-26 10:08 | 50.83899 | -2.01868 | 39304 ft | 506 kts | 73° |
| 2026-04-26 10:09 | 50.85777 | -1.91162 | 39304 ft | 505 kts | 73° |
| 2026-04-26 10:09 | 50.87645 | -1.80447 | 39302 ft | 505 kts | 73° |
| 2026-04-26 10:10 | 50.89504 | -1.69719 | 39300 ft | 505 kts | 73° |
| 2026-04-26 10:10 | 50.91356 | -1.58970 | 39298 ft | 506 kts | 73° |